KMWC/MWC METAR and TAF weather

Enter ICAO airport designator
Station Type Date Time Source
KMWC METAR 2019/04/25 07:55 UTC NOAA

KMWC 250755Z AUTO 00000KT 10SM CLR 07/02 A2982 RMK AO2


Station Type Date Time Source
KMWC Decoded METAR 2019/04/25 07:55 UTC NOAA

Milwaukee / Timmerman, WI, United States (KMWC) 43-07N 088-02W
Apr 25, 2019 - 03:55 AM EDT / 2019.04.25 0755 UTC
Wind: Calm:0
Visibility: 10 mile(s):0
Sky conditions: clear
Temperature: 44 F (7 C)
Dew Point: 35 F (2 C)
Relative Humidity: 70%
Pressure (altimeter): 29.82 in. Hg (1009 hPa)
ob: KMWC 250755Z AUTO 00000KT 10SM CLR 07/02 A2982 RMK AO2
cycle: 8

Station Type Date Time Source
KMWC TAF UTC NOAA

Error!

Example: see airport list